sensor_id;sensor_type;location;lat;lon;timestamp;P1;durP1;ratioP1;P2;durP2;ratioP2
68475;SDS011;55464;48.266;14.188;2023-11-21T00:00:51;5.10;;;2.25;;
68475;SDS011;55464;48.266;14.188;2023-11-21T00:03:19;4.13;;;1.92;;
68475;SDS011;55464;48.266;14.188;2023-11-21T00:05:48;5.93;;;3.05;;
68475;SDS011;55464;48.266;14.188;2023-11-21T00:08:14;6.38;;;2.13;;
68475;SDS011;55464;48.266;14.188;2023-11-21T00:10:39;5.28;;;2.28;;
68475;SDS011;55464;48.266;14.188;2023-11-21T00:13:04;7.95;;;2.25;;
68475;SDS011;55464;48.266;14.188;2023-11-21T00:15:30;7.15;;;2.40;;
68475;SDS011;55464;48.266;14.188;2023-11-21T00:17:55;5.45;;;1.80;;
68475;SDS011;55464;48.266;14.188;2023-11-21T00:20:21;7.88;;;2.20;;
68475;SDS011;55464;48.266;14.188;2023-11-21T00:22:47;7.13;;;2.88;;
68475;SDS011;55464;48.266;14.188;2023-11-21T00:25:13;6.32;;;2.10;;
68475;SDS011;55464;48.266;14.188;2023-11-21T00:27:41;5.32;;;2.08;;
68475;SDS011;55464;48.266;14.188;2023-11-21T00:30:06;4.75;;;2.45;;
68475;SDS011;55464;48.266;14.188;2023-11-21T00:32:33;6.95;;;2.70;;
68475;SDS011;55464;48.266;14.188;2023-11-21T00:35:00;5.57;;;2.70;;
68475;SDS011;55464;48.266;14.188;2023-11-21T00:37:26;3.75;;;2.50;;
68475;SDS011;55464;48.266;14.188;2023-11-21T00:39:51;5.72;;;2.55;;
68475;SDS011;55464;48.266;14.188;2023-11-21T00:42:17;9.27;;;2.88;;
68475;SDS011;55464;48.266;14.188;2023-11-21T00:44:42;7.20;;;2.90;;
68475;SDS011;55464;48.266;14.188;2023-11-21T00:47:07;4.68;;;2.22;;
68475;SDS011;55464;48.266;14.188;2023-11-21T00:49:33;5.60;;;2.10;;
68475;SDS011;55464;48.266;14.188;2023-11-21T00:51:58;5.57;;;2.55;;
68475;SDS011;55464;48.266;14.188;2023-11-21T00:54:24;7.13;;;2.45;;
68475;SDS011;55464;48.266;14.188;2023-11-21T00:56:49;5.45;;;2.92;;
68475;SDS011;55464;48.266;14.188;2023-11-21T00:59:15;4.40;;;1.90;;
68475;SDS011;55464;48.266;14.188;2023-11-21T01:01:40;6.88;;;2.50;;
68475;SDS011;55464;48.266;14.188;2023-11-21T01:04:06;6.18;;;2.58;;
68475;SDS011;55464;48.266;14.188;2023-11-21T01:06:34;3.80;;;2.35;;
68475;SDS011;55464;48.266;14.188;2023-11-21T01:09:00;5.55;;;2.67;;
68475;SDS011;55464;48.266;14.188;2023-11-21T01:11:26;4.80;;;2.85;;
68475;SDS011;55464;48.266;14.188;2023-11-21T01:13:51;5.13;;;2.30;;
68475;SDS011;55464;48.266;14.188;2023-11-21T01:16:17;10.32;;;3.40;;
68475;SDS011;55464;48.266;14.188;2023-11-21T01:18:42;5.53;;;3.00;;
68475;SDS011;55464;48.266;14.188;2023-11-21T01:21:08;9.30;;;2.95;;
68475;SDS011;55464;48.266;14.188;2023-11-21T01:23:34;8.43;;;3.40;;
68475;SDS011;55464;48.266;14.188;2023-11-21T01:26:00;7.50;;;3.22;;
68475;SDS011;55464;48.266;14.188;2023-11-21T01:28:25;6.85;;;3.25;;
68475;SDS011;55464;48.266;14.188;2023-11-21T01:30:51;8.38;;;3.38;;
68475;SDS011;55464;48.266;14.188;2023-11-21T01:33:18;11.30;;;4.20;;
68475;SDS011;55464;48.266;14.188;2023-11-21T01:35:43;7.80;;;3.80;;
68475;SDS011;55464;48.266;14.188;2023-11-21T01:38:11;7.43;;;3.67;;
68475;SDS011;55464;48.266;14.188;2023-11-21T01:40:36;5.53;;;3.45;;
68475;SDS011;55464;48.266;14.188;2023-11-21T01:43:02;6.35;;;3.25;;
68475;SDS011;55464;48.266;14.188;2023-11-21T01:45:28;5.50;;;2.92;;
68475;SDS011;55464;48.266;14.188;2023-11-21T01:47:56;5.43;;;2.85;;
68475;SDS011;55464;48.266;14.188;2023-11-21T01:50:21;9.80;;;3.25;;
68475;SDS011;55464;48.266;14.188;2023-11-21T01:52:47;7.20;;;3.30;;
68475;SDS011;55464;48.266;14.188;2023-11-21T01:55:14;8.70;;;3.28;;
68475;SDS011;55464;48.266;14.188;2023-11-21T01:57:43;8.95;;;3.72;;
68475;SDS011;55464;48.266;14.188;2023-11-21T02:00:11;7.90;;;4.00;;
68475;SDS011;55464;48.266;14.188;2023-11-21T02:02:46;6.23;;;4.07;;
68475;SDS011;55464;48.266;14.188;2023-11-21T02:05:13;9.32;;;4.22;;
68475;SDS011;55464;48.266;14.188;2023-11-21T02:07:40;11.07;;;4.45;;
68475;SDS011;55464;48.266;14.188;2023-11-21T02:10:07;12.95;;;3.83;;
68475;SDS011;55464;48.266;14.188;2023-11-21T02:12:33;8.73;;;4.32;;
68475;SDS011;55464;48.266;14.188;2023-11-21T02:15:00;6.75;;;4.13;;
68475;SDS011;55464;48.266;14.188;2023-11-21T02:17:30;10.15;;;3.97;;
68475;SDS011;55464;48.266;14.188;2023-11-21T02:19:57;13.02;;;4.38;;
68475;SDS011;55464;48.266;14.188;2023-11-21T02:22:22;7.57;;;4.30;;
68475;SDS011;55464;48.266;14.188;2023-11-21T02:24:51;8.77;;;4.22;;
68475;SDS011;55464;48.266;14.188;2023-11-21T02:27:17;6.13;;;3.70;;
68475;SDS011;55464;48.266;14.188;2023-11-21T02:29:46;7.13;;;4.10;;
68475;SDS011;55464;48.266;14.188;2023-11-21T02:32:12;9.57;;;3.78;;
68475;SDS011;55464;48.266;14.188;2023-11-21T02:34:38;6.53;;;3.95;;
68475;SDS011;55464;48.266;14.188;2023-11-21T02:37:04;7.35;;;3.42;;
68475;SDS011;55464;48.266;14.188;2023-11-21T02:39:30;5.10;;;3.63;;
68475;SDS011;55464;48.266;14.188;2023-11-21T02:41:56;12.40;;;4.07;;
68475;SDS011;55464;48.266;14.188;2023-11-21T02:44:22;11.82;;;4.00;;
68475;SDS011;55464;48.266;14.188;2023-11-21T02:46:47;5.00;;;3.53;;
68475;SDS011;55464;48.266;14.188;2023-11-21T02:49:13;13.13;;;4.00;;
68475;SDS011;55464;48.266;14.188;2023-11-21T02:51:38;8.52;;;4.47;;
68475;SDS011;55464;48.266;14.188;2023-11-21T02:54:05;8.45;;;3.13;;
68475;SDS011;55464;48.266;14.188;2023-11-21T02:56:32;10.93;;;3.67;;
68475;SDS011;55464;48.266;14.188;2023-11-21T02:58:59;5.50;;;2.92;;
68475;SDS011;55464;48.266;14.188;2023-11-21T03:01:25;9.63;;;3.75;;
68475;SDS011;55464;48.266;14.188;2023-11-21T03:03:51;8.15;;;3.30;;
68475;SDS011;55464;48.266;14.188;2023-11-21T03:06:18;5.90;;;3.17;;
68475;SDS011;55464;48.266;14.188;2023-11-21T03:08:44;10.15;;;3.55;;
68475;SDS011;55464;48.266;14.188;2023-11-21T03:11:10;10.07;;;2.85;;
68475;SDS011;55464;48.266;14.188;2023-11-21T03:13:35;11.88;;;2.83;;
68475;SDS011;55464;48.266;14.188;2023-11-21T03:16:06;11.50;;;3.08;;
68475;SDS011;55464;48.266;14.188;2023-11-21T03:18:35;8.23;;;3.55;;
68475;SDS011;55464;48.266;14.188;2023-11-21T03:21:04;7.13;;;2.95;;
68475;SDS011;55464;48.266;14.188;2023-11-21T03:23:31;6.22;;;2.67;;
68475;SDS011;55464;48.266;14.188;2023-11-21T03:25:56;6.05;;;2.75;;
68475;SDS011;55464;48.266;14.188;2023-11-21T03:28:23;6.13;;;2.70;;
68475;SDS011;55464;48.266;14.188;2023-11-21T03:30:48;6.75;;;2.78;;
68475;SDS011;55464;48.266;14.188;2023-11-21T03:33:14;5.80;;;3.28;;
68475;SDS011;55464;48.266;14.188;2023-11-21T03:35:39;8.80;;;3.33;;
68475;SDS011;55464;48.266;14.188;2023-11-21T03:38:07;8.65;;;3.20;;
68475;SDS011;55464;48.266;14.188;2023-11-21T03:40:32;8.55;;;3.20;;
68475;SDS011;55464;48.266;14.188;2023-11-21T03:42:58;10.32;;;3.78;;
68475;SDS011;55464;48.266;14.188;2023-11-21T03:45:23;6.85;;;3.25;;
68475;SDS011;55464;48.266;14.188;2023-11-21T03:47:49;8.93;;;3.15;;
68475;SDS011;55464;48.266;14.188;2023-11-21T03:50:15;7.18;;;3.90;;
68475;SDS011;55464;48.266;14.188;2023-11-21T03:52:40;8.63;;;3.78;;
68475;SDS011;55464;48.266;14.188;2023-11-21T03:55:06;7.07;;;3.10;;
68475;SDS011;55464;48.266;14.188;2023-11-21T03:57:31;6.80;;;3.47;;
68475;SDS011;55464;48.266;14.188;2023-11-21T03:59:57;4.82;;;3.13;;
68475;SDS011;55464;48.266;14.188;2023-11-21T04:02:22;7.97;;;3.40;;
68475;SDS011;55464;48.266;14.188;2023-11-21T04:04:50;8.90;;;3.33;;
68475;SDS011;55464;48.266;14.188;2023-11-21T04:07:15;7.70;;;2.70;;
68475;SDS011;55464;48.266;14.188;2023-11-21T04:09:41;6.85;;;3.30;;
68475;SDS011;55464;48.266;14.188;2023-11-21T04:12:07;8.05;;;2.95;;
68475;SDS011;55464;48.266;14.188;2023-11-21T04:14:34;5.72;;;2.92;;
68475;SDS011;55464;48.266;14.188;2023-11-21T04:17:00;5.57;;;3.08;;
68475;SDS011;55464;48.266;14.188;2023-11-21T04:19:25;5.80;;;2.70;;
68475;SDS011;55464;48.266;14.188;2023-11-21T04:21:51;7.07;;;3.08;;
68475;SDS011;55464;48.266;14.188;2023-11-21T04:24:16;9.73;;;2.90;;
68475;SDS011;55464;48.266;14.188;2023-11-21T04:26:44;7.43;;;3.00;;
68475;SDS011;55464;48.266;14.188;2023-11-21T04:29:10;7.70;;;3.30;;
68475;SDS011;55464;48.266;14.188;2023-11-21T04:31:35;7.80;;;3.63;;
68475;SDS011;55464;48.266;14.188;2023-11-21T04:34:01;7.00;;;3.38;;
68475;SDS011;55464;48.266;14.188;2023-11-21T04:36:27;6.65;;;3.17;;
68475;SDS011;55464;48.266;14.188;2023-11-21T04:38:52;6.45;;;3.10;;
68475;SDS011;55464;48.266;14.188;2023-11-21T04:41:18;11.55;;;2.80;;
68475;SDS011;55464;48.266;14.188;2023-11-21T04:43:43;8.27;;;3.15;;
68475;SDS011;55464;48.266;14.188;2023-11-21T04:46:09;18.73;;;5.93;;
68475;SDS011;55464;48.266;14.188;2023-11-21T04:48:34;17.60;;;7.72;;
68475;SDS011;55464;48.266;14.188;2023-11-21T04:51:00;7.32;;;3.80;;
68475;SDS011;55464;48.266;14.188;2023-11-21T04:53:25;8.48;;;4.50;;
68475;SDS011;55464;48.266;14.188;2023-11-21T04:55:50;6.80;;;3.80;;
68475;SDS011;55464;48.266;14.188;2023-11-21T04:58:16;6.22;;;3.72;;
68475;SDS011;55464;48.266;14.188;2023-11-21T05:00:41;8.85;;;4.30;;
68475;SDS011;55464;48.266;14.188;2023-11-21T05:03:07;7.68;;;3.70;;
68475;SDS011;55464;48.266;14.188;2023-11-21T05:05:32;6.72;;;3.17;;
68475;SDS011;55464;48.266;14.188;2023-11-21T05:07:59;6.25;;;3.65;;
68475;SDS011;55464;48.266;14.188;2023-11-21T05:10:24;7.40;;;3.75;;
68475;SDS011;55464;48.266;14.188;2023-11-21T05:12:50;10.25;;;4.07;;
68475;SDS011;55464;48.266;14.188;2023-11-21T05:15:16;6.68;;;3.35;;
68475;SDS011;55464;48.266;14.188;2023-11-21T05:17:44;5.60;;;3.80;;
68475;SDS011;55464;48.266;14.188;2023-11-21T05:20:11;11.55;;;3.47;;
68475;SDS011;55464;48.266;14.188;2023-11-21T05:22:38;11.23;;;4.38;;
68475;SDS011;55464;48.266;14.188;2023-11-21T05:25:04;11.80;;;3.40;;
68475;SDS011;55464;48.266;14.188;2023-11-21T05:27:30;4.93;;;3.15;;
68475;SDS011;55464;48.266;14.188;2023-11-21T05:29:56;7.72;;;3.60;;
68475;SDS011;55464;48.266;14.188;2023-11-21T05:32:22;10.30;;;3.83;;
68475;SDS011;55464;48.266;14.188;2023-11-21T05:34:49;9.57;;;3.80;;
68475;SDS011;55464;48.266;14.188;2023-11-21T05:37:14;8.18;;;3.53;;
68475;SDS011;55464;48.266;14.188;2023-11-21T05:39:40;6.80;;;3.58;;
68475;SDS011;55464;48.266;14.188;2023-11-21T05:42:05;8.10;;;3.08;;
68475;SDS011;55464;48.266;14.188;2023-11-21T05:44:31;11.43;;;4.35;;
68475;SDS011;55464;48.266;14.188;2023-11-21T05:46:56;11.60;;;3.20;;
68475;SDS011;55464;48.266;14.188;2023-11-21T05:49:23;11.50;;;4.28;;
68475;SDS011;55464;48.266;14.188;2023-11-21T05:51:51;9.85;;;3.65;;
68475;SDS011;55464;48.266;14.188;2023-11-21T05:54:19;10.40;;;3.63;;
68475;SDS011;55464;48.266;14.188;2023-11-21T05:56:44;7.00;;;4.07;;
68475;SDS011;55464;48.266;14.188;2023-11-21T05:59:10;6.72;;;3.97;;
68475;SDS011;55464;48.266;14.188;2023-11-21T06:01:35;5.00;;;3.80;;
68475;SDS011;55464;48.266;14.188;2023-11-21T06:04:03;13.45;;;5.40;;
68475;SDS011;55464;48.266;14.188;2023-11-21T06:06:29;7.32;;;4.20;;
68475;SDS011;55464;48.266;14.188;2023-11-21T06:08:54;10.35;;;4.32;;
68475;SDS011;55464;48.266;14.188;2023-11-21T06:11:20;6.75;;;3.95;;
68475;SDS011;55464;48.266;14.188;2023-11-21T06:13:45;7.68;;;4.13;;
68475;SDS011;55464;48.266;14.188;2023-11-21T06:16:11;5.38;;;3.42;;
68475;SDS011;55464;48.266;14.188;2023-11-21T06:18:39;10.57;;;4.05;;
68475;SDS011;55464;48.266;14.188;2023-11-21T06:21:05;13.07;;;4.18;;
68475;SDS011;55464;48.266;14.188;2023-11-21T06:23:31;8.25;;;4.07;;
68475;SDS011;55464;48.266;14.188;2023-11-21T06:25:56;9.68;;;3.33;;
68475;SDS011;55464;48.266;14.188;2023-11-21T06:28:22;8.45;;;3.40;;
68475;SDS011;55464;48.266;14.188;2023-11-21T06:30:47;6.60;;;3.83;;
68475;SDS011;55464;48.266;14.188;2023-11-21T06:33:14;6.70;;;3.65;;
68475;SDS011;55464;48.266;14.188;2023-11-21T06:35:39;7.78;;;3.33;;
68475;SDS011;55464;48.266;14.188;2023-11-21T06:38:05;6.70;;;3.72;;
68475;SDS011;55464;48.266;14.188;2023-11-21T06:40:30;7.30;;;3.10;;
68475;SDS011;55464;48.266;14.188;2023-11-21T06:42:56;7.93;;;3.90;;
68475;SDS011;55464;48.266;14.188;2023-11-21T06:45:23;7.82;;;3.17;;
68475;SDS011;55464;48.266;14.188;2023-11-21T06:47:49;7.10;;;3.10;;
68475;SDS011;55464;48.266;14.188;2023-11-21T06:50:14;8.52;;;3.33;;
68475;SDS011;55464;48.266;14.188;2023-11-21T06:52:40;9.40;;;2.85;;
68475;SDS011;55464;48.266;14.188;2023-11-21T06:55:05;5.10;;;3.05;;
68475;SDS011;55464;48.266;14.188;2023-11-21T06:57:33;7.63;;;3.03;;
68475;SDS011;55464;48.266;14.188;2023-11-21T06:59:58;8.40;;;2.83;;
68475;SDS011;55464;48.266;14.188;2023-11-21T07:02:24;8.98;;;2.85;;
68475;SDS011;55464;48.266;14.188;2023-11-21T07:04:50;6.80;;;2.67;;
68475;SDS011;55464;48.266;14.188;2023-11-21T07:07:15;7.80;;;2.92;;
68475;SDS011;55464;48.266;14.188;2023-11-21T07:09:40;7.10;;;2.55;;
68475;SDS011;55464;48.266;14.188;2023-11-21T07:12:06;3.72;;;2.65;;
68475;SDS011;55464;48.266;14.188;2023-11-21T07:14:35;6.68;;;3.50;;
68475;SDS011;55464;48.266;14.188;2023-11-21T07:17:00;4.43;;;2.65;;
68475;SDS011;55464;48.266;14.188;2023-11-21T07:19:26;5.65;;;2.65;;
68475;SDS011;55464;48.266;14.188;2023-11-21T07:21:51;7.68;;;3.38;;
68475;SDS011;55464;48.266;14.188;2023-11-21T07:24:17;7.28;;;3.00;;
68475;SDS011;55464;48.266;14.188;2023-11-21T07:26:42;8.68;;;3.08;;
68475;SDS011;55464;48.266;14.188;2023-11-21T07:29:08;8.23;;;2.63;;
68475;SDS011;55464;48.266;14.188;2023-11-21T07:31:33;5.65;;;2.50;;
68475;SDS011;55464;48.266;14.188;2023-11-21T07:34:03;6.57;;;2.53;;
68475;SDS011;55464;48.266;14.188;2023-11-21T07:36:28;7.10;;;2.60;;
68475;SDS011;55464;48.266;14.188;2023-11-21T07:38:54;10.63;;;3.13;;
68475;SDS011;55464;48.266;14.188;2023-11-21T07:41:19;7.82;;;2.70;;
68475;SDS011;55464;48.266;14.188;2023-11-21T07:43:45;7.18;;;2.60;;
68475;SDS011;55464;48.266;14.188;2023-11-21T07:46:11;8.80;;;3.00;;
68475;SDS011;55464;48.266;14.188;2023-11-21T07:48:38;3.83;;;2.33;;
68475;SDS011;55464;48.266;14.188;2023-11-21T07:51:04;11.52;;;3.38;;
68475;SDS011;55464;48.266;14.188;2023-11-21T07:53:29;8.05;;;2.97;;
68475;SDS011;55464;48.266;14.188;2023-11-21T07:55:58;5.68;;;2.58;;
68475;SDS011;55464;48.266;14.188;2023-11-21T07:58:27;6.78;;;2.92;;
68475;SDS011;55464;48.266;14.188;2023-11-21T08:00:53;7.68;;;2.90;;
68475;SDS011;55464;48.266;14.188;2023-11-21T08:03:19;5.95;;;2.70;;
68475;SDS011;55464;48.266;14.188;2023-11-21T08:05:44;4.55;;;3.15;;
68475;SDS011;55464;48.266;14.188;2023-11-21T08:08:09;7.60;;;2.55;;
68475;SDS011;55464;48.266;14.188;2023-11-21T08:10:35;4.85;;;2.25;;
68475;SDS011;55464;48.266;14.188;2023-11-21T08:13:01;4.18;;;2.78;;
68475;SDS011;55464;48.266;14.188;2023-11-21T08:15:26;7.25;;;2.65;;
68475;SDS011;55464;48.266;14.188;2023-11-21T08:17:52;7.15;;;2.78;;
68475;SDS011;55464;48.266;14.188;2023-11-21T08:20:17;5.75;;;3.03;;
68475;SDS011;55464;48.266;14.188;2023-11-21T08:22:46;6.43;;;2.58;;
68475;SDS011;55464;48.266;14.188;2023-11-21T08:25:12;7.87;;;3.07;;
68475;SDS011;55464;48.266;14.188;2023-11-21T08:27:38;8.40;;;2.70;;
68475;SDS011;55464;48.266;14.188;2023-11-21T08:30:03;13.32;;;3.25;;
68475;SDS011;55464;48.266;14.188;2023-11-21T08:32:29;8.63;;;2.58;;
68475;SDS011;55464;48.266;14.188;2023-11-21T08:34:58;6.93;;;2.60;;
68475;SDS011;55464;48.266;14.188;2023-11-21T08:37:24;8.38;;;2.50;;
68475;SDS011;55464;48.266;14.188;2023-11-21T08:39:52;4.93;;;3.08;;
68475;SDS011;55464;48.266;14.188;2023-11-21T08:42:18;9.02;;;3.00;;
68475;SDS011;55464;48.266;14.188;2023-11-21T08:44:43;7.10;;;2.75;;
68475;SDS011;55464;48.266;14.188;2023-11-21T08:47:09;7.55;;;3.03;;
68475;SDS011;55464;48.266;14.188;2023-11-21T08:49:34;5.03;;;2.28;;
68475;SDS011;55464;48.266;14.188;2023-11-21T08:51:59;9.05;;;2.90;;
68475;SDS011;55464;48.266;14.188;2023-11-21T08:54:28;10.02;;;3.13;;
68475;SDS011;55464;48.266;14.188;2023-11-21T08:56:53;6.65;;;2.90;;
68475;SDS011;55464;48.266;14.188;2023-11-21T08:59:19;4.25;;;2.53;;
68475;SDS011;55464;48.266;14.188;2023-11-21T09:01:45;7.47;;;3.17;;
68475;SDS011;55464;48.266;14.188;2023-11-21T09:04:11;12.43;;;4.63;;
68475;SDS011;55464;48.266;14.188;2023-11-21T09:06:37;9.38;;;4.35;;
68475;SDS011;55464;48.266;14.188;2023-11-21T09:09:03;9.88;;;4.40;;
68475;SDS011;55464;48.266;14.188;2023-11-21T09:11:30;6.28;;;3.10;;
68475;SDS011;55464;48.266;14.188;2023-11-21T09:13:58;7.93;;;4.38;;
68475;SDS011;55464;48.266;14.188;2023-11-21T09:16:24;17.02;;;5.40;;
68475;SDS011;55464;48.266;14.188;2023-11-21T09:18:50;10.65;;;3.78;;
68475;SDS011;55464;48.266;14.188;2023-11-21T09:21:15;12.65;;;4.40;;
68475;SDS011;55464;48.266;14.188;2023-11-21T09:23:40;9.10;;;4.63;;
68475;SDS011;55464;48.266;14.188;2023-11-21T09:26:06;9.88;;;4.15;;
68475;SDS011;55464;48.266;14.188;2023-11-21T09:28:31;9.27;;;3.97;;
68475;SDS011;55464;48.266;14.188;2023-11-21T09:30:57;6.35;;;2.97;;
68475;SDS011;55464;48.266;14.188;2023-11-21T09:33:22;12.00;;;3.13;;
68475;SDS011;55464;48.266;14.188;2023-11-21T09:35:50;6.20;;;3.08;;
68475;SDS011;55464;48.266;14.188;2023-11-21T09:38:16;9.07;;;3.58;;
68475;SDS011;55464;48.266;14.188;2023-11-21T09:40:41;11.30;;;3.40;;
68475;SDS011;55464;48.266;14.188;2023-11-21T09:43:08;8.48;;;3.05;;
68475;SDS011;55464;48.266;14.188;2023-11-21T09:45:41;7.43;;;4.20;;
68475;SDS011;55464;48.266;14.188;2023-11-21T09:48:10;7.43;;;3.22;;
68475;SDS011;55464;48.266;14.188;2023-11-21T09:50:36;6.55;;;3.45;;
68475;SDS011;55464;48.266;14.188;2023-11-21T09:53:21;5.93;;;3.42;;
68475;SDS011;55464;48.266;14.188;2023-11-21T09:55:50;10.35;;;4.40;;
68475;SDS011;55464;48.266;14.188;2023-11-21T09:58:17;8.27;;;3.60;;
68475;SDS011;55464;48.266;14.188;2023-11-21T10:00:44;6.32;;;3.72;;
68475;SDS011;55464;48.266;14.188;2023-11-21T10:03:11;8.45;;;3.80;;
68475;SDS011;55464;48.266;14.188;2023-11-21T10:05:38;7.80;;;3.75;;
68475;SDS011;55464;48.266;14.188;2023-11-21T10:08:10;6.15;;;3.33;;
68475;SDS011;55464;48.266;14.188;2023-11-21T10:10:37;8.50;;;4.20;;
68475;SDS011;55464;48.266;14.188;2023-11-21T10:13:09;6.38;;;2.78;;
68475;SDS011;55464;48.266;14.188;2023-11-21T10:15:37;7.93;;;2.78;;
68475;SDS011;55464;48.266;14.188;2023-11-21T10:18:03;6.90;;;2.85;;
68475;SDS011;55464;48.266;14.188;2023-11-21T10:20:31;7.35;;;2.97;;
68475;SDS011;55464;48.266;14.188;2023-11-21T10:22:58;5.28;;;2.72;;
68475;SDS011;55464;48.266;14.188;2023-11-21T10:25:26;5.53;;;3.40;;
68475;SDS011;55464;48.266;14.188;2023-11-21T10:27:56;8.60;;;3.95;;
68475;SDS011;55464;48.266;14.188;2023-11-21T10:30:24;7.72;;;3.67;;
68475;SDS011;55464;48.266;14.188;2023-11-21T10:32:58;10.88;;;3.65;;
68475;SDS011;55464;48.266;14.188;2023-11-21T10:35:25;7.45;;;3.53;;
68475;SDS011;55464;48.266;14.188;2023-11-21T10:38:17;6.47;;;3.97;;
68475;SDS011;55464;48.266;14.188;2023-11-21T10:40:43;6.68;;;3.80;;
68475;SDS011;55464;48.266;14.188;2023-11-21T10:43:10;7.70;;;3.70;;
68475;SDS011;55464;48.266;14.188;2023-11-21T10:45:38;8.25;;;3.70;;
68475;SDS011;55464;48.266;14.188;2023-11-21T10:48:05;10.70;;;3.63;;
68475;SDS011;55464;48.266;14.188;2023-11-21T10:50:36;6.88;;;3.60;;
68475;SDS011;55464;48.266;14.188;2023-11-21T10:53:03;7.57;;;3.90;;
68475;SDS011;55464;48.266;14.188;2023-11-21T10:55:29;9.18;;;3.65;;
68475;SDS011;55464;48.266;14.188;2023-11-21T10:57:57;5.38;;;3.85;;
68475;SDS011;55464;48.266;14.188;2023-11-21T11:00:24;8.30;;;3.78;;
68475;SDS011;55464;48.266;14.188;2023-11-21T11:02:52;7.85;;;4.90;;
68475;SDS011;55464;48.266;14.188;2023-11-21T11:05:22;7.15;;;4.47;;
68475;SDS011;55464;48.266;14.188;2023-11-21T11:08:11;9.80;;;4.95;;
68475;SDS011;55464;48.266;14.188;2023-11-21T11:10:37;14.45;;;5.65;;
68475;SDS011;55464;48.266;14.188;2023-11-21T11:13:03;6.90;;;4.00;;
68475;SDS011;55464;48.266;14.188;2023-11-21T11:15:29;9.90;;;4.90;;
68475;SDS011;55464;48.266;14.188;2023-11-21T11:17:55;5.88;;;3.67;;
68475;SDS011;55464;48.266;14.188;2023-11-21T11:20:22;7.97;;;4.13;;
68475;SDS011;55464;48.266;14.188;2023-11-21T11:28:11;9.63;;;4.63;;
68475;SDS011;55464;48.266;14.188;2023-11-21T11:33:52;9.38;;;3.90;;
68475;SDS011;55464;48.266;14.188;2023-11-21T11:36:29;6.68;;;4.32;;
68475;SDS011;55464;48.266;14.188;2023-11-21T11:39:02;8.82;;;3.80;;
68475;SDS011;55464;48.266;14.188;2023-11-21T11:41:31;7.50;;;3.63;;
68475;SDS011;55464;48.266;14.188;2023-11-21T11:44:02;8.07;;;4.50;;
68475;SDS011;55464;48.266;14.188;2023-11-21T11:46:45;6.78;;;3.88;;
68475;SDS011;55464;48.266;14.188;2023-11-21T11:49:23;6.15;;;4.05;;
68475;SDS011;55464;48.266;14.188;2023-11-21T11:54:55;7.85;;;4.18;;
68475;SDS011;55464;48.266;14.188;2023-11-21T11:57:23;8.02;;;4.38;;
68475;SDS011;55464;48.266;14.188;2023-11-21T12:00:08;9.63;;;4.55;;
68475;SDS011;55464;48.266;14.188;2023-11-21T12:02:35;12.35;;;5.63;;
68475;SDS011;55464;48.266;14.188;2023-11-21T12:05:06;10.80;;;5.22;;
68475;SDS011;55464;48.266;14.188;2023-11-21T12:07:49;14.68;;;5.85;;
68475;SDS011;55464;48.266;14.188;2023-11-21T12:10:16;7.22;;;4.50;;
68475;SDS011;55464;48.266;14.188;2023-11-21T12:12:43;9.50;;;4.50;;
68475;SDS011;55464;48.266;14.188;2023-11-21T12:15:13;6.50;;;4.10;;
68475;SDS011;55464;48.266;14.188;2023-11-21T12:17:40;8.75;;;5.28;;
68475;SDS011;55464;48.266;14.188;2023-11-21T12:20:07;8.35;;;4.13;;
68475;SDS011;55464;48.266;14.188;2023-11-21T12:22:43;5.18;;;3.47;;
68475;SDS011;55464;48.266;14.188;2023-11-21T12:25:08;5.07;;;2.70;;
68475;SDS011;55464;48.266;14.188;2023-11-21T12:27:34;10.32;;;3.70;;
68475;SDS011;55464;48.266;14.188;2023-11-21T12:30:00;10.23;;;4.57;;
68475;SDS011;55464;48.266;14.188;2023-11-21T12:32:25;6.65;;;3.75;;
68475;SDS011;55464;48.266;14.188;2023-11-21T12:34:51;8.85;;;4.63;;
68475;SDS011;55464;48.266;14.188;2023-11-21T12:37:17;10.95;;;5.05;;
68475;SDS011;55464;48.266;14.188;2023-11-21T12:39:43;9.98;;;4.82;;
68475;SDS011;55464;48.266;14.188;2023-11-21T12:42:09;6.00;;;3.50;;
68475;SDS011;55464;48.266;14.188;2023-11-21T12:44:35;7.97;;;3.78;;
68475;SDS011;55464;48.266;14.188;2023-11-21T12:47:01;15.57;;;4.63;;
68475;SDS011;55464;48.266;14.188;2023-11-21T12:49:26;5.35;;;2.83;;
68475;SDS011;55464;48.266;14.188;2023-11-21T12:51:53;6.57;;;3.13;;
68475;SDS011;55464;48.266;14.188;2023-11-21T12:54:19;3.92;;;2.80;;
68475;SDS011;55464;48.266;14.188;2023-11-21T12:56:45;6.18;;;2.50;;
68475;SDS011;55464;48.266;14.188;2023-11-21T12:59:12;3.65;;;2.80;;
68475;SDS011;55464;48.266;14.188;2023-11-21T13:01:41;4.53;;;2.17;;
68475;SDS011;55464;48.266;14.188;2023-11-21T13:04:07;3.63;;;2.38;;
68475;SDS011;55464;48.266;14.188;2023-11-21T13:06:35;4.18;;;2.63;;
68475;SDS011;55464;48.266;14.188;2023-11-21T13:09:05;3.30;;;1.90;;
68475;SDS011;55464;48.266;14.188;2023-11-21T13:11:36;4.43;;;2.67;;
68475;SDS011;55464;48.266;14.188;2023-11-21T13:14:02;4.22;;;2.22;;
68475;SDS011;55464;48.266;14.188;2023-11-21T13:16:28;5.03;;;1.85;;
68475;SDS011;55464;48.266;14.188;2023-11-21T13:18:55;5.38;;;2.65;;
68475;SDS011;55464;48.266;14.188;2023-11-21T13:21:21;2.13;;;1.70;;
68475;SDS011;55464;48.266;14.188;2023-11-21T13:23:47;4.32;;;2.60;;
68475;SDS011;55464;48.266;14.188;2023-11-21T13:26:15;6.07;;;2.63;;
68475;SDS011;55464;48.266;14.188;2023-11-21T13:28:40;3.40;;;2.45;;
68475;SDS011;55464;48.266;14.188;2023-11-21T13:31:10;5.43;;;2.83;;
68475;SDS011;55464;48.266;14.188;2023-11-21T13:33:52;5.78;;;3.40;;
68475;SDS011;55464;48.266;14.188;2023-11-21T13:36:24;7.43;;;2.92;;
68475;SDS011;55464;48.266;14.188;2023-11-21T13:38:50;8.07;;;4.00;;
68475;SDS011;55464;48.266;14.188;2023-11-21T13:41:19;8.80;;;3.85;;
68475;SDS011;55464;48.266;14.188;2023-11-21T13:43:45;5.47;;;3.40;;
68475;SDS011;55464;48.266;14.188;2023-11-21T13:46:15;3.17;;;2.53;;
68475;SDS011;55464;48.266;14.188;2023-11-21T13:48:46;3.33;;;2.30;;
68475;SDS011;55464;48.266;14.188;2023-11-21T13:51:22;3.08;;;2.58;;
68475;SDS011;55464;48.266;14.188;2023-11-21T13:53:56;2.90;;;2.20;;
68475;SDS011;55464;48.266;14.188;2023-11-21T13:56:22;2.42;;;2.22;;
68475;SDS011;55464;48.266;14.188;2023-11-21T13:58:52;3.75;;;2.15;;
68475;SDS011;55464;48.266;14.188;2023-11-21T14:01:18;3.05;;;1.83;;
68475;SDS011;55464;48.266;14.188;2023-11-21T14:04:00;2.97;;;2.30;;
68475;SDS011;55464;48.266;14.188;2023-11-21T14:06:42;4.60;;;2.50;;
68475;SDS011;55464;48.266;14.188;2023-11-21T14:09:15;2.55;;;2.22;;
68475;SDS011;55464;48.266;14.188;2023-11-21T14:11:50;2.33;;;2.08;;
68475;SDS011;55464;48.266;14.188;2023-11-21T14:14:21;5.43;;;2.30;;
68475;SDS011;55464;48.266;14.188;2023-11-21T14:16:50;2.97;;;2.00;;
68475;SDS011;55464;48.266;14.188;2023-11-21T14:19:15;4.10;;;2.17;;
68475;SDS011;55464;48.266;14.188;2023-11-21T14:21:42;4.57;;;2.22;;
68475;SDS011;55464;48.266;14.188;2023-11-21T14:24:11;6.03;;;2.33;;
68475;SDS011;55464;48.266;14.188;2023-11-21T14:26:43;3.72;;;1.95;;
68475;SDS011;55464;48.266;14.188;2023-11-21T14:29:13;3.67;;;2.50;;
68475;SDS011;55464;48.266;14.188;2023-11-21T14:31:42;3.00;;;1.98;;
68475;SDS011;55464;48.266;14.188;2023-11-21T14:34:08;4.82;;;2.15;;
68475;SDS011;55464;48.266;14.188;2023-11-21T14:36:34;2.78;;;2.50;;
68475;SDS011;55464;48.266;14.188;2023-11-21T14:39:01;4.57;;;2.15;;
68475;SDS011;55464;48.266;14.188;2023-11-21T14:41:29;3.45;;;2.05;;
68475;SDS011;55464;48.266;14.188;2023-11-21T14:43:54;5.40;;;2.38;;